Time;durP1;ratioP1;P1;durP2;ratioP2;P2;SDS_P1;SDS_P2;PMS_P1;PMS_P2;Temp;Humidity;BMP_temperature;BMP_pressure;BME280_temperature;BME280_humidity;BME280_pressure;Samples;Min_cycle;Max_cycle;Signal;HPM_P1;HPM_P2
2022/08/21 00:01:32;;;;;;;58.55;33.78;;;;;;;;;;5083536;28;20064;-81
2022/08/21 00:04:03;;;;;;;53.95;31.95;;;;;;;;;;5076378;28;20056;-80
2022/08/21 00:06:29;;;;;;;57.88;32.28;;;;;;;;;;5077329;28;20695;-80
2022/08/21 00:08:56;;;;;;;55.50;33.10;;;;;;;;;;5077678;28;20044;-81
2022/08/21 00:11:22;;;;;;;52.67;32.05;;;;;;;;;;5085502;28;20120;-81
2022/08/21 00:13:48;;;;;;;49.03;31.33;;;;;;;;;;5096400;28;20044;-81
2022/08/21 00:16:15;;;;;;;51.80;32.05;;;;;;;;;;5095920;28;20071;-82
2022/08/21 00:18:42;;;;;;;49.30;30.77;;;;;;;;;;5095781;28;20075;-81
2022/08/21 00:21:08;;;;;;;52.72;32.42;;;;;;;;;;5078008;28;20082;-81
2022/08/21 00:23:35;;;;;;;50.13;31.33;;;;;;;;;;5096800;28;20079;-80
2022/08/21 00:26:02;;;;;;;51.03;30.70;;;;;;;;;;5097175;28;20130;-83
2022/08/21 00:28:28;;;;;;;53.90;29.95;;;;;;;;;;5096047;28;20086;-82
2022/08/21 00:30:56;;;;;;;47.55;30.23;;;;;;;;;;5096566;28;20040;-80
2022/08/21 00:33:23;;;;;;;48.58;30.17;;;;;;;;;;5096405;28;20051;-81
2022/08/21 00:35:50;;;;;;;45.90;28.90;;;;;;;;;;5078260;28;20092;-81
2022/08/21 00:38:16;;;;;;;47.47;29.80;;;;;;;;;;5095161;28;20044;-82
2022/08/21 00:40:42;;;;;;;43.17;28.90;;;;;;;;;;5095092;28;20052;-82
2022/08/21 00:43:11;;;;;;;43.95;28.65;;;;;;;;;;5095392;28;20139;-81
2022/08/21 00:45:37;;;;;;;50.22;27.55;;;;;;;;;;5095644;28;20059;-81
2022/08/21 00:48:04;;;;;;;39.53;26.48;;;;;;;;;;5095025;28;20055;-79
2022/08/21 00:50:32;;;;;;;40.25;25.75;;;;;;;;;;5095102;28;20044;-79
2022/08/21 00:53:00;;;;;;;40.53;27.20;;;;;;;;;;5095185;28;20120;-81
2022/08/21 00:55:28;;;;;;;40.47;27.40;;;;;;;;;;5081421;28;20037;-80
2022/08/21 00:57:59;;;;;;;41.78;27.27;;;;;;;;;;5098957;28;20048;-81
2022/08/21 01:00:29;;;;;;;43.97;27.45;;;;;;;;;;5098126;28;20048;-80
2022/08/21 01:02:56;;;;;;;46.55;28.27;;;;;;;;;;5102624;28;20059;-79
2022/08/21 01:05:24;;;;;;;43.00;27.27;;;;;;;;;;5107851;28;20139;-81
2022/08/21 01:07:50;;;;;;;45.60;28.35;;;;;;;;;;5100256;28;20528;-82
2022/08/21 01:10:18;;;;;;;43.72;28.33;;;;;;;;;;5099360;28;20127;-82
2022/08/21 01:12:51;;;;;;;44.88;28.52;;;;;;;;;;5080622;28;20128;-83
2022/08/21 01:15:18;;;;;;;45.92;29.00;;;;;;;;;;5063591;28;20129;-81
2022/08/21 01:17:44;;;;;;;48.45;30.33;;;;;;;;;;5081825;28;20068;-81
2022/08/21 01:20:11;;;;;;;49.88;30.27;;;;;;;;;;5082160;28;20049;-80
2022/08/21 01:22:38;;;;;;;49.78;30.77;;;;;;;;;;5073062;28;20044;-83
2022/08/21 01:25:05;;;;;;;49.78;30.52;;;;;;;;;;5067671;28;20497;-80
2022/08/21 01:27:33;;;;;;;53.83;31.83;;;;;;;;;;5088815;28;20044;-82
2022/08/21 01:30:03;;;;;;;59.33;34.10;;;;;;;;;;5087565;28;20067;-82
2022/08/21 01:32:31;;;;;;;58.97;35.30;;;;;;;;;;5082640;28;20491;-80
2022/08/21 01:35:00;;;;;;;59.85;35.17;;;;;;;;;;5062270;28;20041;-81
2022/08/21 01:37:26;;;;;;;63.80;36.35;;;;;;;;;;5087609;28;20078;-82
2022/08/21 01:39:53;;;;;;;64.53;37.70;;;;;;;;;;5093963;28;20060;-84
2022/08/21 01:42:19;;;;;;;68.38;38.90;;;;;;;;;;5096631;28;20075;-81
2022/08/21 01:44:46;;;;;;;72.85;39.63;;;;;;;;;;5094998;28;20048;-80
2022/08/21 01:47:14;;;;;;;76.15;40.40;;;;;;;;;;5092269;28;20044;-83
2022/08/21 01:49:49;;;;;;;84.88;41.38;;;;;;;;;;5093303;28;20051;-83
2022/08/21 01:52:16;;;;;;;84.55;42.80;;;;;;;;;;5092067;28;20040;-82
2022/08/21 01:54:42;;;;;;;84.93;45.20;;;;;;;;;;5098803;28;20044;-81
2022/08/21 01:57:09;;;;;;;93.20;45.72;;;;;;;;;;5100437;28;20063;-81
2022/08/21 01:59:36;;;;;;;100.43;47.10;;;;;;;;;;5095146;28;20428;-81
2022/08/21 02:02:03;;;;;;;102.85;49.85;;;;;;;;;;5094115;28;20052;-80
2022/08/21 02:04:30;;;;;;;110.47;51.53;;;;;;;;;;5076827;28;20559;-81
2022/08/21 02:06:57;;;;;;;117.65;52.03;;;;;;;;;;5094177;28;20044;-79
2022/08/21 02:09:23;;;;;;;131.93;58.22;;;;;;;;;;5094656;28;20570;-79
2022/08/21 02:11:49;;;;;;;119.00;55.17;;;;;;;;;;5062522;28;20110;-81
2022/08/21 02:14:16;;;;;;;131.25;57.53;;;;;;;;;;5073379;28;20140;-80
2022/08/21 02:16:58;;;;;;;137.80;58.90;;;;;;;;;;5074323;28;20051;-82
2022/08/21 02:19:34;;;;;;;137.88;58.45;;;;;;;;;;5073501;28;20044;-81
2022/08/21 02:22:07;;;;;;;142.30;61.83;;;;;;;;;;5072808;28;20044;-82
2022/08/21 02:24:33;;;;;;;137.73;60.63;;;;;;;;;;5073142;28;20052;-82
2022/08/21 02:27:00;;;;;;;142.73;60.35;;;;;;;;;;5073713;28;20055;-79
2022/08/21 02:29:26;;;;;;;140.85;60.88;;;;;;;;;;5074736;28;20053;-81
2022/08/21 02:31:53;;;;;;;135.00;57.25;;;;;;;;;;5072646;28;20060;-83
2022/08/21 02:34:19;;;;;;;135.00;60.00;;;;;;;;;;5072540;28;20044;-82
2022/08/21 02:36:46;;;;;;;131.93;59.20;;;;;;;;;;5071826;28;20139;-80
2022/08/21 02:39:24;;;;;;;138.95;58.67;;;;;;;;;;5072193;28;20078;-80
2022/08/21 02:41:52;;;;;;;140.57;58.25;;;;;;;;;;5072715;28;20064;-82
2022/08/21 02:44:19;;;;;;;127.82;56.90;;;;;;;;;;5073175;28;20104;-82
2022/08/21 02:46:45;;;;;;;138.02;59.20;;;;;;;;;;5073342;28;20049;-82
2022/08/21 02:49:11;;;;;;;132.23;57.40;;;;;;;;;;5072450;28;20084;-82
2022/08/21 02:51:38;;;;;;;134.50;57.60;;;;;;;;;;5072503;28;20053;-81
2022/08/21 02:54:04;;;;;;;124.78;54.15;;;;;;;;;;5057188;28;20091;-82
2022/08/21 02:56:31;;;;;;;124.88;55.10;;;;;;;;;;5086702;28;20104;-81
2022/08/21 02:58:57;;;;;;;119.72;52.08;;;;;;;;;;5096277;28;20072;-82
2022/08/21 03:01:24;;;;;;;121.80;52.17;;;;;;;;;;5093984;28;20082;-81
2022/08/21 03:03:51;;;;;;;116.55;51.28;;;;;;;;;;5093075;28;20051;-79
2022/08/21 03:06:18;;;;;;;116.25;53.63;;;;;;;;;;5097398;28;20124;-79
2022/08/21 03:08:45;;;;;;;116.20;52.03;;;;;;;;;;5102977;28;20044;-81
2022/08/21 03:11:12;;;;;;;119.63;53.28;;;;;;;;;;5092040;28;20136;-79
2022/08/21 03:13:39;;;;;;;113.25;51.35;;;;;;;;;;5079666;28;20040;-78
2022/08/21 03:16:06;;;;;;;116.82;53.65;;;;;;;;;;5082330;28;20044;-80
2022/08/21 03:18:35;;;;;;;112.95;51.63;;;;;;;;;;5080648;28;20151;-81
2022/08/21 03:21:03;;;;;;;110.40;49.08;;;;;;;;;;5066620;28;20075;-79
2022/08/21 03:23:31;;;;;;;95.10;47.50;;;;;;;;;;5082310;28;20048;-80
2022/08/21 03:25:59;;;;;;;92.55;46.55;;;;;;;;;;5079645;28;20082;-82
2022/08/21 03:28:25;;;;;;;93.00;45.42;;;;;;;;;;5081609;28;20052;-80
2022/08/21 03:30:52;;;;;;;88.65;41.70;;;;;;;;;;5076836;28;20438;-82
2022/08/21 03:33:19;;;;;;;85.20;41.58;;;;;;;;;;5078281;28;20072;-82
2022/08/21 03:35:55;;;;;;;78.22;38.80;;;;;;;;;;5077305;28;20041;-82
2022/08/21 03:38:21;;;;;;;72.78;36.72;;;;;;;;;;5076869;28;20048;-80
2022/08/21 03:40:52;;;;;;;71.72;36.75;;;;;;;;;;5076663;28;20080;-81
2022/08/21 03:43:18;;;;;;;65.20;36.92;;;;;;;;;;5075839;28;20044;-82
2022/08/21 03:45:45;;;;;;;71.50;36.78;;;;;;;;;;5075549;28;20095;-82
2022/08/21 03:48:11;;;;;;;66.28;34.80;;;;;;;;;;5057587;28;20048;-80
2022/08/21 03:50:40;;;;;;;66.68;35.90;;;;;;;;;;5076911;28;20182;-80
2022/08/21 03:53:10;;;;;;;66.40;36.20;;;;;;;;;;5076300;28;20060;-79
2022/08/21 03:55:44;;;;;;;71.82;35.63;;;;;;;;;;5089840;28;20053;-80
2022/08/21 03:58:10;;;;;;;68.63;36.13;;;;;;;;;;5093830;28;20044;-80
2022/08/21 04:00:43;;;;;;;69.47;37.15;;;;;;;;;;5078965;28;20135;-80
2022/08/21 04:03:09;;;;;;;67.72;36.15;;;;;;;;;;5096453;28;20040;-80
2022/08/21 04:05:36;;;;;;;70.20;36.38;;;;;;;;;;5098082;28;20044;-81
2022/08/21 04:08:04;;;;;;;76.22;39.30;;;;;;;;;;5096444;28;20044;-80
2022/08/21 04:10:31;;;;;;;73.47;38.67;;;;;;;;;;5094183;28;20091;-78
2022/08/21 04:12:58;;;;;;;80.78;39.00;;;;;;;;;;5059427;28;20067;-79
2022/08/21 04:15:25;;;;;;;78.05;40.28;;;;;;;;;;5077248;28;20067;-81
2022/08/21 04:17:52;;;;;;;76.72;40.42;;;;;;;;;;5076578;28;20068;-79
2022/08/21 04:20:19;;;;;;;87.65;40.55;;;;;;;;;;5073855;28;20647;-80
2022/08/21 04:22:45;;;;;;;86.32;41.33;;;;;;;;;;5072913;28;20135;-80
2022/08/21 04:25:12;;;;;;;86.63;43.35;;;;;;;;;;5055610;28;20063;-79
2022/08/21 04:27:40;;;;;;;87.43;42.75;;;;;;;;;;5072910;28;20064;-80
2022/08/21 04:30:07;;;;;;;87.18;42.70;;;;;;;;;;5073071;28;20087;-80
2022/08/21 04:32:34;;;;;;;91.70;43.85;;;;;;;;;;5073567;28;20072;-81
2022/08/21 04:35:06;;;;;;;83.90;41.08;;;;;;;;;;5058199;28;20048;-80
2022/08/21 04:37:32;;;;;;;86.93;42.60;;;;;;;;;;5056752;28;20072;-80
2022/08/21 04:40:07;;;;;;;82.15;41.88;;;;;;;;;;5075150;28;20058;-81
2022/08/21 04:42:40;;;;;;;86.45;42.33;;;;;;;;;;5074551;28;20179;-81
2022/08/21 04:45:06;;;;;;;77.32;41.75;;;;;;;;;;5074701;28;20068;-81
2022/08/21 04:47:33;;;;;;;82.60;42.08;;;;;;;;;;5074503;28;20048;-81
2022/08/21 04:50:18;;;;;;;81.55;41.20;;;;;;;;;;5076292;28;20087;-81
2022/08/21 04:52:46;;;;;;;76.43;40.30;;;;;;;;;;5075553;28;20064;-81
2022/08/21 04:55:12;;;;;;;78.78;40.92;;;;;;;;;;5094692;28;20036;-82
2022/08/21 04:57:39;;;;;;;81.57;42.05;;;;;;;;;;5096616;28;20049;-82
2022/08/21 05:00:14;;;;;;;;;;;;;;;;;;5096419;28;20049;-78
2022/08/21 05:02:40;;;;;;;;;;;;;;;;;;5076571;28;19921;-79
2022/08/21 05:05:07;;;;;;;79.80;40.55;;;;;;;;;;5074969;28;19921;-81
2022/08/21 05:07:36;;;;;;;79.45;41.45;;;;;;;;;;5076504;28;20094;-79
2022/08/21 05:10:08;;;;;;;76.63;41.47;;;;;;;;;;5074994;28;20054;-81
2022/08/21 05:12:37;;;;;;;74.72;39.75;;;;;;;;;;5094188;28;20151;-81
2022/08/21 05:15:04;;;;;;;72.03;38.80;;;;;;;;;;5095644;28;20512;-81
2022/08/21 05:17:31;;;;;;;74.55;38.83;;;;;;;;;;5095642;28;20875;-82
2022/08/21 05:19:57;;;;;;;69.75;37.85;;;;;;;;;;5095878;28;20048;-81
2022/08/21 05:22:24;;;;;;;65.78;36.80;;;;;;;;;;5095356;28;20493;-79
2022/08/21 05:24:51;;;;;;;62.15;36.63;;;;;;;;;;5095759;28;20051;-81
2022/08/21 05:27:17;;;;;;;61.08;34.50;;;;;;;;;;5092830;28;20484;-82
2022/08/21 05:29:45;;;;;;;62.45;36.50;;;;;;;;;;5090791;28;20044;-82
2022/08/21 05:32:12;;;;;;;63.30;36.05;;;;;;;;;;5082068;28;20080;-83
2022/08/21 05:34:38;;;;;;;64.20;37.15;;;;;;;;;;5082235;28;20509;-81
2022/08/21 05:37:05;;;;;;;62.58;35.47;;;;;;;;;;5084509;28;20076;-79
2022/08/21 05:39:33;;;;;;;56.40;35.05;;;;;;;;;;5075279;28;20048;-79
2022/08/21 05:42:19;;;;;;;59.97;35.08;;;;;;;;;;5096894;28;20066;-81
2022/08/21 05:44:45;;;;;;;62.55;34.60;;;;;;;;;;5095715;28;20077;-80
2022/08/21 05:47:14;;;;;;;61.15;34.83;;;;;;;;;;5084611;28;20056;-82
2022/08/21 05:49:41;;;;;;;55.53;33.63;;;;;;;;;;5073236;28;20052;-80
2022/08/21 05:52:07;;;;;;;57.65;35.13;;;;;;;;;;5054372;28;20211;-82
2022/08/21 05:54:35;;;;;;;54.67;33.53;;;;;;;;;;5079042;28;20048;-81
2022/08/21 05:57:02;;;;;;;57.60;32.80;;;;;;;;;;5081180;28;20446;-81
2022/08/21 05:59:28;;;;;;;50.10;32.10;;;;;;;;;;5093390;28;20068;-80
2022/08/21 06:01:55;;;;;;;53.92;32.88;;;;;;;;;;5093688;28;20105;-81
2022/08/21 06:04:21;;;;;;;50.97;30.40;;;;;;;;;;5089176;28;20056;-80
2022/08/21 06:06:48;;;;;;;49.60;30.45;;;;;;;;;;5079134;28;20488;-81
2022/08/21 06:09:14;;;;;;;50.28;29.58;;;;;;;;;;5073867;28;20064;-82
2022/08/21 06:11:41;;;;;;;46.17;29.13;;;;;;;;;;5085080;28;20075;-82
2022/08/21 06:14:07;;;;;;;43.42;28.05;;;;;;;;;;5094650;28;20040;-81
2022/08/21 06:16:33;;;;;;;42.42;27.25;;;;;;;;;;5094395;28;20048;-82
2022/08/21 06:19:00;;;;;;;43.10;27.85;;;;;;;;;;5094181;28;20147;-82
2022/08/21 06:21:28;;;;;;;42.25;27.58;;;;;;;;;;5093247;28;20173;-81
2022/08/21 06:23:55;;;;;;;43.97;26.77;;;;;;;;;;5094173;28;20083;-81
2022/08/21 06:26:23;;;;;;;44.05;28.70;;;;;;;;;;5093496;28;20044;-81
2022/08/21 06:28:50;;;;;;;45.58;27.08;;;;;;;;;;5093366;28;20497;-80
2022/08/21 06:31:18;;;;;;;44.25;27.40;;;;;;;;;;5095225;28;20131;-80
2022/08/21 06:33:45;;;;;;;41.30;26.35;;;;;;;;;;5096363;28;20052;-80
2022/08/21 06:36:11;;;;;;;42.63;25.02;;;;;;;;;;5097799;28;20131;-80
2022/08/21 06:38:38;;;;;;;38.20;25.42;;;;;;;;;;5100314;28;20056;-82
2022/08/21 06:41:05;;;;;;;41.20;24.92;;;;;;;;;;5086721;28;20071;-81
2022/08/21 06:43:32;;;;;;;36.72;24.15;;;;;;;;;;5105012;28;20078;-79
2022/08/21 06:46:05;;;;;;;39.17;24.95;;;;;;;;;;5109376;28;20048;-81
2022/08/21 06:48:33;;;;;;;39.47;25.25;;;;;;;;;;5105798;28;20417;-81
2022/08/21 06:51:00;;;;;;;43.20;25.23;;;;;;;;;;5105553;28;20051;-82
2022/08/21 06:53:27;;;;;;;38.03;25.27;;;;;;;;;;5103258;28;20040;-82
2022/08/21 06:55:53;;;;;;;36.88;23.38;;;;;;;;;;5086126;28;20444;-81
2022/08/21 06:58:19;;;;;;;36.67;24.27;;;;;;;;;;5076126;28;20670;-82
2022/08/21 07:00:47;;;;;;;35.10;24.02;;;;;;;;;;5081420;28;20570;-81
2022/08/21 07:03:22;;;;;;;36.90;24.60;;;;;;;;;;5080643;28;20087;-79
2022/08/21 07:05:48;;;;;;;38.37;26.13;;;;;;;;;;5081870;28;20139;-82
2022/08/21 07:08:16;;;;;;;37.10;23.75;;;;;;;;;;5078803;28;20072;-82
2022/08/21 07:10:42;;;;;;;40.17;23.35;;;;;;;;;;5092211;28;20056;-82
2022/08/21 07:13:09;;;;;;;34.80;23.88;;;;;;;;;;5106858;28;20036;-80
2022/08/21 07:15:35;;;;;;;38.15;23.90;;;;;;;;;;5077098;28;20055;-81
2022/08/21 07:18:02;;;;;;;36.95;23.92;;;;;;;;;;5082858;28;20048;-81
2022/08/21 07:20:30;;;;;;;36.58;22.58;;;;;;;;;;5076426;28;20140;-80
2022/08/21 07:22:58;;;;;;;40.00;24.25;;;;;;;;;;5059974;28;20080;-82
2022/08/21 07:25:25;;;;;;;36.40;24.20;;;;;;;;;;5078952;28;20103;-82
2022/08/21 07:27:52;;;;;;;33.33;23.50;;;;;;;;;;5083625;28;20573;-82
2022/08/21 07:30:19;;;;;;;31.05;21.10;;;;;;;;;;5087571;28;20130;-82
2022/08/21 07:32:45;;;;;;;30.92;19.73;;;;;;;;;;5082722;28;20090;-82
2022/08/21 07:35:12;;;;;;;30.25;19.95;;;;;;;;;;5063478;28;20048;-82
2022/08/21 07:37:38;;;;;;;31.20;19.77;;;;;;;;;;5090868;28;20083;-82
2022/08/21 07:40:05;;;;;;;30.20;19.60;;;;;;;;;;5089810;28;20134;-81
2022/08/21 07:42:32;;;;;;;27.40;17.88;;;;;;;;;;5089673;28;20424;-81
2022/08/21 07:44:58;;;;;;;32.47;18.90;;;;;;;;;;5090246;28;20131;-81
2022/08/21 07:47:25;;;;;;;26.45;19.15;;;;;;;;;;5090287;28;20484;-84
2022/08/21 07:50:10;;;;;;;27.02;18.52;;;;;;;;;;5090584;28;20056;-80
2022/08/21 07:52:43;;;;;;;28.65;18.00;;;;;;;;;;5070254;28;20432;-82
2022/08/21 07:55:12;;;;;;;28.50;18.35;;;;;;;;;;5080351;28;20071;-81
2022/08/21 07:57:39;;;;;;;26.60;18.02;;;;;;;;;;5085202;28;20132;-81
2022/08/21 08:00:06;;;;;;;23.00;16.73;;;;;;;;;;5092116;28;20110;-82
2022/08/21 08:02:33;;;;;;;24.63;16.50;;;;;;;;;;5074015;28;20101;-81
2022/08/21 08:05:00;;;;;;;22.00;15.27;;;;;;;;;;5091434;28;20175;-81
2022/08/21 08:07:27;;;;;;;24.30;15.80;;;;;;;;;;5092329;28;20375;-81
2022/08/21 08:09:53;;;;;;;22.10;14.48;;;;;;;;;;5077303;28;20197;-81
2022/08/21 08:12:20;;;;;;;22.55;14.65;;;;;;;;;;5080085;28;20107;-81
2022/08/21 08:14:47;;;;;;;22.13;14.80;;;;;;;;;;5095160;28;20033;-81
2022/08/21 08:17:13;;;;;;;22.02;15.32;;;;;;;;;;5076065;28;20103;-79
2022/08/21 08:19:40;;;;;;;20.95;14.70;;;;;;;;;;5073330;28;20083;-81
2022/08/21 08:22:19;;;;;;;24.05;15.13;;;;;;;;;;5073714;28;20084;-80
2022/08/21 08:24:45;;;;;;;24.50;13.73;;;;;;;;;;5075208;28;20131;-78
2022/08/21 08:27:12;;;;;;;17.83;13.32;;;;;;;;;;5075144;28;20639;-80
2022/08/21 08:29:38;;;;;;;17.45;12.88;;;;;;;;;;5073214;28;20531;-78
2022/08/21 08:32:07;;;;;;;20.92;12.63;;;;;;;;;;5067124;28;20070;-81
2022/08/21 08:34:34;;;;;;;23.23;13.02;;;;;;;;;;5067741;28;20056;-81
2022/08/21 08:37:01;;;;;;;16.80;11.35;;;;;;;;;;5081475;28;20525;-81
2022/08/21 08:39:27;;;;;;;18.15;11.02;;;;;;;;;;5087715;28;20182;-80
2022/08/21 08:42:15;;;;;;;16.98;11.52;;;;;;;;;;5088072;28;20052;-80
2022/08/21 08:45:02;;;;;;;14.73;9.55;;;;;;;;;;5068461;28;20052;-80
2022/08/21 08:47:30;;;;;;;22.23;10.48;;;;;;;;;;5066986;28;20106;-80
2022/08/21 08:50:03;;;;;;;13.45;10.52;;;;;;;;;;5067452;28;20135;-80
2022/08/21 08:52:30;;;;;;;16.15;9.85;;;;;;;;;;5067952;28;20133;-80
2022/08/21 08:54:59;;;;;;;15.68;9.52;;;;;;;;;;5089341;28;20109;-78
2022/08/21 08:57:26;;;;;;;15.75;9.20;;;;;;;;;;5080170;28;20482;-80
2022/08/21 08:59:59;;;;;;;12.75;8.00;;;;;;;;;;5089142;28;20071;-81
2022/08/21 09:02:28;;;;;;;15.57;8.00;;;;;;;;;;5087758;28;20134;-81
2022/08/21 09:04:56;;;;;;;12.88;7.05;;;;;;;;;;5089846;28;20301;-79
2022/08/21 09:07:25;;;;;;;11.25;6.97;;;;;;;;;;5089153;28;20071;-79
2022/08/21 09:10:02;;;;;;;12.02;7.07;;;;;;;;;;5090436;28;20142;-81
2022/08/21 09:12:33;;;;;;;12.13;5.57;;;;;;;;;;5070133;28;20091;-82
2022/08/21 09:14:59;;;;;;;10.75;6.35;;;;;;;;;;5082373;28;20123;-81
2022/08/21 09:17:36;;;;;;;14.43;6.53;;;;;;;;;;5077709;28;20059;-81
2022/08/21 09:20:06;;;;;;;9.85;5.35;;;;;;;;;;5077881;28;20139;-81
2022/08/21 09:22:41;;;;;;;10.80;4.90;;;;;;;;;;5074922;28;20044;-82
2022/08/21 09:25:15;;;;;;;10.45;5.30;;;;;;;;;;5085998;28;20079;-84
2022/08/21 09:27:41;;;;;;;12.90;5.63;;;;;;;;;;5082708;28;20594;-80
2022/08/21 09:30:09;;;;;;;9.60;5.00;;;;;;;;;;5082665;28;20134;-82
2022/08/21 09:32:36;;;;;;;9.20;5.20;;;;;;;;;;5087692;28;20043;-80
2022/08/21 09:35:05;;;;;;;8.65;4.68;;;;;;;;;;5072769;28;20449;-83
2022/08/21 09:37:34;;;;;;;15.25;3.78;;;;;;;;;;5071612;28;20094;-81
2022/08/21 09:40:02;;;;;;;12.00;3.55;;;;;;;;;;5089082;28;20131;-81
2022/08/21 09:42:33;;;;;;;8.98;3.40;;;;;;;;;;5083911;28;20047;-83
2022/08/21 09:45:16;;;;;;;7.03;3.45;;;;;;;;;;5088576;28;20524;-81
2022/08/21 09:47:43;;;;;;;11.13;3.38;;;;;;;;;;5088514;28;20064;-82
2022/08/21 09:50:13;;;;;;;13.13;3.58;;;;;;;;;;5089202;28;20044;-83
2022/08/21 09:52:44;;;;;;;7.82;3.40;;;;;;;;;;5067553;28;20076;-82
2022/08/21 09:58:09;;;;;;;8.77;3.38;;;;;;;;;;5089943;28;20048;-82
2022/08/21 10:00:36;;;;;;;9.70;3.25;;;;;;;;;;5090864;28;20076;-82
2022/08/21 10:03:08;;;;;;;5.40;2.50;;;;;;;;;;5091423;28;20080;-83
2022/08/21 10:05:36;;;;;;;9.40;3.10;;;;;;;;;;5094193;28;20667;-82
2022/08/21 10:08:04;;;;;;;8.85;3.00;;;;;;;;;;5096425;28;20052;-84
2022/08/21 10:10:31;;;;;;;10.35;3.35;;;;;;;;;;5091683;28;20056;-81
2022/08/21 10:13:13;;;;;;;7.68;3.20;;;;;;;;;;5076172;28;20064;-83
2022/08/21 10:15:43;;;;;;;9.05;2.00;;;;;;;;;;5079285;28;20052;-83
2022/08/21 10:18:12;;;;;;;8.32;2.13;;;;;;;;;;5082922;28;20052;-83
2022/08/21 10:20:49;;;;;;;11.40;2.60;;;;;;;;;;5082017;28;20064;-80
2022/08/21 10:23:15;;;;;;;6.75;2.15;;;;;;;;;;5081263;28;20138;-82
2022/08/21 10:25:47;;;;;;;10.98;2.42;;;;;;;;;;5081626;28;20078;-84
2022/08/21 10:28:53;;;;;;;7.50;2.22;;;;;;;;;;5081226;28;20059;-83
2022/08/21 10:31:42;;;;;;;8.00;2.30;;;;;;;;;;4989767;28;20054;-84
2022/08/21 10:34:18;;;;;;;4.82;2.10;;;;;;;;;;5067589;28;20091;-83
2022/08/21 10:36:44;;;;;;;;;;;;;;;;;;5083317;28;20083;-81
2022/08/21 10:39:10;;;;;;;6.50;2.10;;;;;;;;;;5080117;28;19946;-81
2022/08/21 10:42:09;;;;;;;9.25;2.08;;;;;;;;;;5076845;28;20048;-83
2022/08/21 10:44:45;;;;;;;5.75;2.25;;;;;;;;;;5078728;28;20639;-86
2022/08/21 10:47:16;;;;;;;18.77;5.63;;;;;;;;;;5075350;28;20112;-85
2022/08/21 10:49:51;;;;;;;12.60;3.63;;;;;;;;;;5075731;28;20070;-83
2022/08/21 10:52:21;;;;;;;8.13;1.98;;;;;;;;;;5093399;28;20483;-84
2022/08/21 10:54:54;;;;;;;6.20;1.80;;;;;;;;;;5096501;28;20056;-81
2022/08/21 10:57:32;;;;;;;7.95;1.80;;;;;;;;;;5070012;28;20084;-84
2022/08/21 11:00:12;;;;;;;6.15;2.30;;;;;;;;;;5058385;28;20087;-84
2022/08/21 11:02:42;;;;;;;9.20;2.15;;;;;;;;;;5076631;28;20083;-81
2022/08/21 11:05:16;;;;;;;6.60;2.03;;;;;;;;;;5077881;28;20056;-84
2022/08/21 11:08:01;;;;;;;8.23;2.45;;;;;;;;;;5078133;28;20144;-85
2022/08/21 11:10:33;;;;;;;5.93;2.00;;;;;;;;;;5086089;28;20126;-84
2022/08/21 11:13:02;;;;;;;7.80;2.03;;;;;;;;;;5083122;28;20135;-85
2022/08/21 11:15:38;;;;;;;8.95;2.03;;;;;;;;;;5094513;28;20048;-85
2022/08/21 11:18:15;;;;;;;5.05;2.00;;;;;;;;;;5094457;28;20105;-84
2022/08/21 11:20:50;;;;;;;6.90;2.47;;;;;;;;;;5093975;28;20055;-83
2022/08/21 11:23:21;;;;;;;8.07;2.40;;;;;;;;;;5093186;28;20340;-83
2022/08/21 11:25:51;;;;;;;6.65;2.17;;;;;;;;;;5089391;28;20048;-81
2022/08/21 11:28:20;;;;;;;6.55;2.00;;;;;;;;;;5077282;28;20111;-84
2022/08/21 11:31:05;;;;;;;6.25;2.20;;;;;;;;;;5104230;28;20028;-83
2022/08/21 11:33:41;;;;;;;5.18;1.90;;;;;;;;;;5106541;28;20070;-83
2022/08/21 11:36:15;;;;;;;6.50;2.00;;;;;;;;;;5095756;28;20037;-82
2022/08/21 11:38:44;;;;;;;5.88;2.10;;;;;;;;;;5073103;28;20053;-81
2022/08/21 11:41:20;;;;;;;9.23;1.92;;;;;;;;;;5069163;28;20084;-81
2022/08/21 11:43:51;;;;;;;6.57;2.40;;;;;;;;;;5079117;28;20052;-82
2022/08/21 11:46:26;;;;;;;6.03;2.17;;;;;;;;;;5090815;28;20559;-82
2022/08/21 11:49:02;;;;;;;10.18;2.38;;;;;;;;;;5088996;28;20102;-81
2022/08/21 11:51:28;;;;;;;;;;;;;;;;;;5090659;28;20170;-83
2022/08/21 11:54:13;;;;;;;7.05;2.00;;;;;;;;;;5090962;28;19985;-82
2022/08/21 11:56:43;;;;;;;7.45;2.10;;;;;;;;;;5078470;28;20571;-83
2022/08/21 11:59:16;;;;;;;7.75;1.80;;;;;;;;;;5069628;28;20549;-83
2022/08/21 12:01:44;;;;;;;5.63;2.03;;;;;;;;;;5069722;28;20068;-83
2022/08/21 12:04:26;;;;;;;6.70;2.00;;;;;;;;;;5069790;28;20497;-82
2022/08/21 12:06:54;;;;;;;5.65;1.90;;;;;;;;;;5071030;28;20052;-83
2022/08/21 12:09:23;;;;;;;7.32;1.90;;;;;;;;;;5070570;28;20576;-81
2022/08/21 12:12:32;;;;;;;6.40;1.92;;;;;;;;;;5083439;28;20047;-79
2022/08/21 12:15:13;;;;;;;8.80;1.90;;;;;;;;;;4985986;28;20082;-79
2022/08/21 12:17:40;;;;;;;7.82;2.17;;;;;;;;;;5086720;28;20685;-84
2022/08/21 12:20:25;;;;;;;9.65;2.30;;;;;;;;;;5090766;28;20079;-82
2022/08/21 12:23:14;;;;;;;7.13;1.90;;;;;;;;;;5076085;28;20124;-81
2022/08/21 12:26:07;;;;;;;7.32;2.08;;;;;;;;;;5072952;28;20045;-81
2022/08/21 12:28:34;;;;;;;4.90;2.20;;;;;;;;;;5049373;28;20532;-81
2022/08/21 12:31:00;;;;;;;8.40;2.20;;;;;;;;;;5056249;28;20527;-82
2022/08/21 12:33:26;;;;;;;5.60;1.92;;;;;;;;;;5076739;28;20351;-80
2022/08/21 12:36:01;;;;;;;7.78;2.40;;;;;;;;;;5077685;28;20086;-84
2022/08/21 12:38:31;;;;;;;7.68;2.40;;;;;;;;;;5073065;28;20083;-82
2022/08/21 12:41:02;;;;;;;4.93;1.90;;;;;;;;;;5074892;28;20095;-83
2022/08/21 12:43:32;;;;;;;6.50;2.15;;;;;;;;;;5075028;28;20048;-84
2022/08/21 12:46:00;;;;;;;7.35;2.25;;;;;;;;;;5073287;28;20210;-82
2022/08/21 12:48:30;;;;;;;9.88;2.30;;;;;;;;;;5070665;28;20504;-83
2022/08/21 12:51:05;;;;;;;9.02;2.25;;;;;;;;;;5052915;28;20098;-81
2022/08/21 12:53:49;;;;;;;6.97;2.13;;;;;;;;;;5072597;28;20123;-83
2022/08/21 12:56:23;;;;;;;4.93;2.25;;;;;;;;;;5089093;28;20119;-81
2022/08/21 12:58:51;;;;;;;6.45;2.05;;;;;;;;;;5072398;28;20424;-81
2022/08/21 13:01:27;;;;;;;5.10;2.35;;;;;;;;;;5070140;28;20361;-83
2022/08/21 13:03:55;;;;;;;6.32;2.35;;;;;;;;;;5070960;28;20048;-84
2022/08/21 13:06:36;;;;;;;4.65;2.40;;;;;;;;;;5071325;28;20075;-82
2022/08/21 13:09:08;;;;;;;7.75;2.50;;;;;;;;;;5070824;28;20050;-82
2022/08/21 13:11:34;;;;;;;5.20;2.03;;;;;;;;;;5071232;28;20131;-82
2022/08/21 13:14:02;;;;;;;9.73;2.13;;;;;;;;;;5069336;28;20076;-80
2022/08/21 13:16:31;;;;;;;5.43;2.00;;;;;;;;;;5070761;28;20503;-81
2022/08/21 13:19:05;;;;;;;5.65;2.28;;;;;;;;;;5052024;28;20052;-82
2022/08/21 13:21:39;;;;;;;3.80;1.67;;;;;;;;;;5069905;28;20474;-81
2022/08/21 13:24:11;;;;;;;5.00;2.20;;;;;;;;;;5052243;28;20561;-82
2022/08/21 13:26:57;;;;;;;6.82;2.17;;;;;;;;;;5069510;28;20055;-83
2022/08/21 13:29:28;;;;;;;5.22;1.95;;;;;;;;;;5070560;28;20087;-83
2022/08/21 13:32:01;;;;;;;8.10;2.30;;;;;;;;;;5070422;28;20147;-83
2022/08/21 13:34:32;;;;;;;6.25;2.00;;;;;;;;;;5071218;28;20080;-83
2022/08/21 13:37:00;;;;;;;6.53;2.42;;;;;;;;;;5071103;28;20072;-82
2022/08/21 13:39:27;;;;;;;6.15;2.50;;;;;;;;;;5071493;28;20088;-83
2022/08/21 13:41:57;;;;;;;4.63;2.08;;;;;;;;;;5084532;28;20079;-80
2022/08/21 13:44:32;;;;;;;7.15;2.22;;;;;;;;;;5076493;28;20116;-82
2022/08/21 13:47:03;;;;;;;7.35;2.15;;;;;;;;;;5071722;28;20083;-82
2022/08/21 13:49:31;;;;;;;8.43;2.20;;;;;;;;;;5069005;28;20147;-81
2022/08/21 13:51:57;;;;;;;5.05;1.70;;;;;;;;;;5070322;28;20521;-83
2022/08/21 13:54:33;;;;;;;6.90;2.13;;;;;;;;;;5075337;28;20140;-83
2022/08/21 13:57:02;;;;;;;11.57;2.50;;;;;;;;;;5077955;28;20075;-83
2022/08/21 13:59:30;;;;;;;7.97;2.50;;;;;;;;;;5089950;28;20044;-81
2022/08/21 14:01:59;;;;;;;7.57;2.25;;;;;;;;;;5089689;28;20056;-81
2022/08/21 14:04:30;;;;;;;4.25;2.10;;;;;;;;;;5089617;28;20056;-82
2022/08/21 14:06:57;;;;;;;6.28;2.20;;;;;;;;;;5089844;28;20074;-83
2022/08/21 14:09:29;;;;;;;7.63;2.47;;;;;;;;;;5089483;28;20317;-82
2022/08/21 14:11:57;;;;;;;6.53;2.40;;;;;;;;;;5057297;28;20521;-83
2022/08/21 14:14:25;;;;;;;7.57;2.65;;;;;;;;;;5067145;28;20151;-80
2022/08/21 14:16:56;;;;;;;6.32;2.50;;;;;;;;;;5050681;28;20087;-83
2022/08/21 14:19:24;;;;;;;8.68;2.40;;;;;;;;;;5068631;28;20151;-83
2022/08/21 14:21:51;;;;;;;6.50;2.25;;;;;;;;;;5070442;28;20469;-81
2022/08/21 14:24:23;;;;;;;6.32;2.13;;;;;;;;;;5069483;28;20111;-82
2022/08/21 14:26:51;;;;;;;6.50;1.92;;;;;;;;;;5069697;28;20338;-83
2022/08/21 14:29:20;;;;;;;5.65;2.50;;;;;;;;;;5070537;28;20052;-83
2022/08/21 14:31:52;;;;;;;6.13;2.30;;;;;;;;;;5068954;28;20049;-83
2022/08/21 14:34:19;;;;;;;6.35;2.45;;;;;;;;;;5070808;28;20422;-83
2022/08/21 14:36:46;;;;;;;4.63;2.33;;;;;;;;;;5070365;28;20045;-81
2022/08/21 14:39:13;;;;;;;8.95;3.05;;;;;;;;;;5069808;28;20048;-82
2022/08/21 14:41:39;;;;;;;4.25;2.38;;;;;;;;;;5070438;28;20466;-82
2022/08/21 14:44:07;;;;;;;4.03;2.30;;;;;;;;;;5052568;28;20197;-83